Terminal Aerodrome Forecast
Issued by NWS

Home | Current Version | Previous Version | Text Only | Print | Product List | Glossary On
Versions: 1 2 3 4 5 6 7 8 9 10 11 12 13 14
050
FTUS44 KLZK 121125
TAFBPK
TAF
KBPK 121125Z 1212/1312 VRB04KT P6SM SCT250
     FM121600 32010G15KT P6SM SCT025 BKN035
     FM130000 VRB06KT P6SM BKN035 OVC060=

USA.gov is the U.S. government's official web portal to all federal, state and local government web resources and services.